sensor_id;sensor_type;location;lat;lon;timestamp;pressure;altitude;pressure_sealevel;temperature;humidity
43691;BME280;29293;52.190;21.226;2023-02-26T00:10:00;98907.42;;;-0.12;100.00
43691;BME280;29293;52.190;21.226;2023-02-26T00:25:11;98933.03;;;-0.35;100.00
43691;BME280;29293;52.190;21.226;2023-02-26T00:40:25;98952.71;;;-0.52;100.00
43691;BME280;29293;52.190;21.226;2023-02-26T00:55:39;98968.96;;;-0.61;100.00
43691;BME280;29293;52.190;21.226;2023-02-26T01:10:49;98995.05;;;-0.75;100.00
43691;BME280;29293;52.190;21.226;2023-02-26T01:26:03;99006.51;;;-0.87;100.00
43691;BME280;29293;52.190;21.226;2023-02-26T01:41:31;99032.46;;;-0.87;100.00
43691;BME280;29293;52.190;21.226;2023-02-26T01:56:44;99068.81;;;-0.89;100.00
43691;BME280;29293;52.190;21.226;2023-02-26T02:12:14;99107.30;;;-0.92;100.00
43691;BME280;29293;52.190;21.226;2023-02-26T02:27:40;99137.45;;;-0.96;100.00
43691;BME280;29293;52.190;21.226;2023-02-26T02:43:13;99157.61;;;-0.99;100.00
43691;BME280;29293;52.190;21.226;2023-02-26T02:58:31;99182.92;;;-1.04;100.00
43691;BME280;29293;52.190;21.226;2023-02-26T03:14:04;99214.46;;;-1.07;100.00
43691;BME280;29293;52.190;21.226;2023-02-26T03:29:33;99251.06;;;-1.08;100.00
43691;BME280;29293;52.190;21.226;2023-02-26T03:44:58;99278.46;;;-1.09;100.00
43691;BME280;29293;52.190;21.226;2023-02-26T04:00:30;99303.33;;;-1.11;100.00
43691;BME280;29293;52.190;21.226;2023-02-26T04:16:02;99331.14;;;-1.08;100.00
43691;BME280;29293;52.190;21.226;2023-02-26T04:31:20;99357.62;;;-1.13;100.00
43691;BME280;29293;52.190;21.226;2023-02-26T04:46:33;99376.48;;;-1.18;100.00
43691;BME280;29293;52.190;21.226;2023-02-26T05:02:20;99398.98;;;-1.22;100.00
43691;BME280;29293;52.190;21.226;2023-02-26T05:17:42;99418.52;;;-1.24;100.00
43691;BME280;29293;52.190;21.226;2023-02-26T05:33:04;99441.95;;;-1.30;100.00
43691;BME280;29293;52.190;21.226;2023-02-26T05:48:45;99473.78;;;-1.35;100.00
43691;BME280;29293;52.190;21.226;2023-02-26T06:04:02;99506.79;;;-1.35;100.00
43691;BME280;29293;52.190;21.226;2023-02-26T06:19:26;99533.46;;;-1.34;100.00
43691;BME280;29293;52.190;21.226;2023-02-26T06:34:40;99565.34;;;-1.35;100.00
43691;BME280;29293;52.190;21.226;2023-02-26T06:49:55;99603.92;;;-1.50;100.00
43691;BME280;29293;52.190;21.226;2023-02-26T07:05:16;99636.17;;;-1.61;100.00
43691;BME280;29293;52.190;21.226;2023-02-26T07:20:51;99674.50;;;-1.58;100.00
43691;BME280;29293;52.190;21.226;2023-02-26T07:36:03;99696.00;;;-1.47;100.00
43691;BME280;29293;52.190;21.226;2023-02-26T07:51:14;99726.83;;;-1.23;100.00
43691;BME280;29293;52.190;21.226;2023-02-26T08:06:24;99744.05;;;-1.02;100.00
43691;BME280;29293;52.190;21.226;2023-02-26T08:21:52;99768.57;;;-0.82;100.00
43691;BME280;29293;52.190;21.226;2023-02-26T08:37:06;99791.83;;;-0.54;100.00
43691;BME280;29293;52.190;21.226;2023-02-26T08:52:24;99815.10;;;-0.56;100.00
43691;BME280;29293;52.190;21.226;2023-02-26T09:07:35;99858.00;;;-0.71;100.00
43691;BME280;29293;52.190;21.226;2023-02-26T09:22:55;99893.09;;;-0.82;100.00
43691;BME280;29293;52.190;21.226;2023-02-26T09:38:07;99917.58;;;-0.91;100.00
43691;BME280;29293;52.190;21.226;2023-02-26T09:53:23;99940.20;;;-0.94;100.00
43691;BME280;29293;52.190;21.226;2023-02-26T10:08:45;99959.43;;;-0.90;100.00
43691;BME280;29293;52.190;21.226;2023-02-26T10:24:05;99979.62;;;-0.86;100.00
43691;BME280;29293;52.190;21.226;2023-02-26T10:39:35;99999.23;;;-0.89;100.00
43691;BME280;29293;52.190;21.226;2023-02-26T10:55:06;100027.08;;;-0.87;100.00
43691;BME280;29293;52.190;21.226;2023-02-26T11:10:43;100056.48;;;-0.96;100.00
43691;BME280;29293;52.190;21.226;2023-02-26T11:26:15;100069.14;;;-0.96;100.00
43691;BME280;29293;52.190;21.226;2023-02-26T11:41:41;100080.86;;;-0.71;100.00
43691;BME280;29293;52.190;21.226;2023-02-26T11:57:22;100095.80;;;-0.35;100.00
43691;BME280;29293;52.190;21.226;2023-02-26T12:12:49;100125.84;;;-0.18;100.00
43691;BME280;29293;52.190;21.226;2023-02-26T12:28:27;100145.17;;;-0.23;100.00
43691;BME280;29293;52.190;21.226;2023-02-26T12:43:58;100163.14;;;-0.32;100.00
43691;BME280;29293;52.190;21.226;2023-02-26T12:59:25;100183.27;;;-0.35;100.00
43691;BME280;29293;52.190;21.226;2023-02-26T13:14:52;100199.64;;;-0.16;100.00
43691;BME280;29293;52.190;21.226;2023-02-26T13:30:21;100206.01;;;0.09;100.00
43691;BME280;29293;52.190;21.226;2023-02-26T13:45:47;100229.58;;;-0.07;100.00
43691;BME280;29293;52.190;21.226;2023-02-26T14:01:07;100234.46;;;-0.01;100.00
43691;BME280;29293;52.190;21.226;2023-02-26T14:16:28;100251.71;;;0.07;100.00
43691;BME280;29293;52.190;21.226;2023-02-26T14:32:11;100261.50;;;0.02;100.00
43691;BME280;29293;52.190;21.226;2023-02-26T14:47:24;100278.25;;;0.09;100.00
43691;BME280;29293;52.190;21.226;2023-02-26T15:02:45;100298.31;;;0.12;100.00
43691;BME280;29293;52.190;21.226;2023-02-26T15:18:24;100317.08;;;0.04;100.00
43691;BME280;29293;52.190;21.226;2023-02-26T15:33:38;100340.43;;;-0.07;100.00
43691;BME280;29293;52.190;21.226;2023-02-26T15:48:54;100354.60;;;-0.22;100.00
43691;BME280;29293;52.190;21.226;2023-02-26T16:04:15;100373.08;;;-0.60;100.00
43691;BME280;29293;52.190;21.226;2023-02-26T16:19:42;100392.69;;;-0.97;100.00
43691;BME280;29293;52.190;21.226;2023-02-26T16:35:07;100420.45;;;-1.31;100.00
43691;BME280;29293;52.190;21.226;2023-02-26T16:50:27;100445.36;;;-1.54;100.00
43691;BME280;29293;52.190;21.226;2023-02-26T17:05:48;100466.23;;;-1.64;100.00
43691;BME280;29293;52.190;21.226;2023-02-26T17:21:17;100477.70;;;-1.66;100.00
43691;BME280;29293;52.190;21.226;2023-02-26T17:36:29;100502.17;;;-1.74;100.00
43691;BME280;29293;52.190;21.226;2023-02-26T17:51:46;100530.56;;;-1.92;100.00
43691;BME280;29293;52.190;21.226;2023-02-26T18:06:58;100552.52;;;-1.94;100.00
43691;BME280;29293;52.190;21.226;2023-02-26T18:22:13;100564.83;;;-1.87;100.00
43691;BME280;29293;52.190;21.226;2023-02-26T18:37:28;100574.46;;;-1.81;100.00
43691;BME280;29293;52.190;21.226;2023-02-26T18:52:37;100594.20;;;-1.74;100.00
43691;BME280;29293;52.190;21.226;2023-02-26T19:07:48;100614.70;;;-1.66;100.00
43691;BME280;29293;52.190;21.226;2023-02-26T19:23:00;100634.06;;;-1.64;100.00
43691;BME280;29293;52.190;21.226;2023-02-26T19:38:14;100634.98;;;-1.70;100.00
43691;BME280;29293;52.190;21.226;2023-02-26T19:53:26;100658.58;;;-1.61;100.00
43691;BME280;29293;52.190;21.226;2023-02-26T20:08:46;100680.20;;;-1.58;100.00
43691;BME280;29293;52.190;21.226;2023-02-26T20:23:59;100696.26;;;-1.59;100.00
43691;BME280;29293;52.190;21.226;2023-02-26T20:39:14;100707.39;;;-1.55;100.00
43691;BME280;29293;52.190;21.226;2023-02-26T20:54:28;100723.92;;;-1.50;100.00
43691;BME280;29293;52.190;21.226;2023-02-26T21:09:45;100730.40;;;-1.45;100.00
43691;BME280;29293;52.190;21.226;2023-02-26T21:25:01;100733.86;;;-1.47;100.00
43691;BME280;29293;52.190;21.226;2023-02-26T21:40:24;100756.48;;;-1.45;100.00
43691;BME280;29293;52.190;21.226;2023-02-26T21:55:39;100770.71;;;-1.43;100.00
43691;BME280;29293;52.190;21.226;2023-02-26T22:10:55;100785.48;;;-1.37;100.00
43691;BME280;29293;52.190;21.226;2023-02-26T22:26:09;100798.80;;;-1.34;100.00
43691;BME280;29293;52.190;21.226;2023-02-26T22:41:20;100815.55;;;-1.32;100.00
43691;BME280;29293;52.190;21.226;2023-02-26T22:56:33;100823.80;;;-1.30;100.00
43691;BME280;29293;52.190;21.226;2023-02-26T23:11:44;100839.45;;;-1.25;100.00
43691;BME280;29293;52.190;21.226;2023-02-26T23:26:55;100847.55;;;-1.21;100.00
43691;BME280;29293;52.190;21.226;2023-02-26T23:42:06;100854.41;;;-1.23;100.00
43691;BME280;29293;52.190;21.226;2023-02-26T23:57:17;100869.88;;;-1.26;100.00
